sensor_id;sensor_type;location;lat;lon;timestamp;pressure;altitude;pressure_sealevel;temperature;humidity
71764;BME280;59602;52.142;5.408;2023-04-28T00:00:50;101533.50;;;10.24;53.38
71764;BME280;59602;52.142;5.408;2023-04-28T00:03:17;101540.09;;;10.23;53.23
71764;BME280;59602;52.142;5.408;2023-04-28T00:05:44;101547.00;;;10.20;52.71
71764;BME280;59602;52.142;5.408;2023-04-28T00:08:10;101542.72;;;10.19;53.04
71764;BME280;59602;52.142;5.408;2023-04-28T00:10:40;101551.22;;;10.17;53.31
71764;BME280;59602;52.142;5.408;2023-04-28T00:13:16;101527.94;;;10.16;53.15
71764;BME280;59602;52.142;5.408;2023-04-28T00:15:43;101519.34;;;10.14;53.88
71764;BME280;59602;52.142;5.408;2023-04-28T00:18:10;101527.50;;;10.14;53.27
71764;BME280;59602;52.142;5.408;2023-04-28T00:20:36;101520.47;;;10.13;53.37
71764;BME280;59602;52.142;5.408;2023-04-28T00:23:04;101504.97;;;10.14;53.67
71764;BME280;59602;52.142;5.408;2023-04-28T00:25:30;101499.91;;;10.12;53.57
71764;BME280;59602;52.142;5.408;2023-04-28T00:27:57;101505.69;;;10.11;53.46
71764;BME280;59602;52.142;5.408;2023-04-28T00:30:24;101497.91;;;10.09;53.04
71764;BME280;59602;52.142;5.408;2023-04-28T00:32:51;101483.53;;;10.09;53.47
71764;BME280;59602;52.142;5.408;2023-04-28T00:35:17;101486.25;;;10.09;52.98
71764;BME280;59602;52.142;5.408;2023-04-28T00:37:44;101475.38;;;10.09;53.80
71764;BME280;59602;52.142;5.408;2023-04-28T00:40:11;101472.66;;;10.09;54.24
71764;BME280;59602;52.142;5.408;2023-04-28T00:42:38;101481.59;;;10.09;54.33
71764;BME280;59602;52.142;5.408;2023-04-28T00:45:05;101478.09;;;10.09;54.38
71764;BME280;59602;52.142;5.408;2023-04-28T00:47:33;101477.66;;;10.07;54.45
71764;BME280;59602;52.142;5.408;2023-04-28T00:50:01;101483.81;;;10.04;54.77
71764;BME280;59602;52.142;5.408;2023-04-28T00:52:28;101488.06;;;10.01;54.53
71764;BME280;59602;52.142;5.408;2023-04-28T00:55:04;101473.31;;;10.02;54.65
71764;BME280;59602;52.142;5.408;2023-04-28T00:57:31;101467.53;;;10.04;54.68
71764;BME280;59602;52.142;5.408;2023-04-28T00:59:58;101472.19;;;10.03;55.15
71764;BME280;59602;52.142;5.408;2023-04-28T01:02:25;101463.59;;;10.01;55.18
71764;BME280;59602;52.142;5.408;2023-04-28T01:04:52;101456.56;;;10.00;54.64
71764;BME280;59602;52.142;5.408;2023-04-28T01:07:19;101456.56;;;10.00;55.25
71764;BME280;59602;52.142;5.408;2023-04-28T01:09:47;101452.31;;;9.99;55.54
71764;BME280;59602;52.142;5.408;2023-04-28T01:12:13;101450.38;;;10.00;54.35
71764;BME280;59602;52.142;5.408;2023-04-28T01:14:40;101451.88;;;9.97;54.82
71764;BME280;59602;52.142;5.408;2023-04-28T01:17:07;101453.81;;;9.96;55.21
71764;BME280;59602;52.142;5.408;2023-04-28T01:19:34;101450.31;;;9.96;55.16
71764;BME280;59602;52.142;5.408;2023-04-28T01:22:01;101455.75;;;9.96;55.70
71764;BME280;59602;52.142;5.408;2023-04-28T01:24:28;101451.00;;;9.93;55.09
71764;BME280;59602;52.142;5.408;2023-04-28T01:26:54;101440.16;;;9.93;55.29
71764;BME280;59602;52.142;5.408;2023-04-28T01:29:21;101440.56;;;9.95;56.06
71764;BME280;59602;52.142;5.408;2023-04-28T01:31:48;101439.81;;;9.94;55.55
71764;BME280;59602;52.142;5.408;2023-04-28T01:34:15;101441.34;;;9.95;57.10
71764;BME280;59602;52.142;5.408;2023-04-28T01:36:42;101432.78;;;9.93;56.70
71764;BME280;59602;52.142;5.408;2023-04-28T01:39:09;101439.44;;;9.96;56.59
71764;BME280;59602;52.142;5.408;2023-04-28T01:41:36;101430.13;;;9.97;56.46
71764;BME280;59602;52.142;5.408;2023-04-28T01:44:02;101424.34;;;9.98;56.16
71764;BME280;59602;52.142;5.408;2023-04-28T01:46:30;101421.22;;;9.96;57.05
71764;BME280;59602;52.142;5.408;2023-04-28T01:48:59;101413.41;;;9.95;56.88
71764;BME280;59602;52.142;5.408;2023-04-28T01:51:26;101407.97;;;9.95;56.90
71764;BME280;59602;52.142;5.408;2023-04-28T01:53:52;101400.13;;;9.90;56.13
71764;BME280;59602;52.142;5.408;2023-04-28T01:56:19;101397.34;;;9.86;56.35
71764;BME280;59602;52.142;5.408;2023-04-28T01:58:46;101405.88;;;9.85;56.07
71764;BME280;59602;52.142;5.408;2023-04-28T02:01:13;101408.94;;;9.83;55.76
71764;BME280;59602;52.142;5.408;2023-04-28T02:03:39;101406.22;;;9.83;56.74
71764;BME280;59602;52.142;5.408;2023-04-28T02:06:06;101396.13;;;9.84;56.19
71764;BME280;59602;52.142;5.408;2023-04-28T02:08:33;101405.06;;;9.84;56.58
71764;BME280;59602;52.142;5.408;2023-04-28T02:11:00;101398.06;;;9.83;55.81
71764;BME280;59602;52.142;5.408;2023-04-28T02:13:27;101394.59;;;9.83;56.53
71764;BME280;59602;52.142;5.408;2023-04-28T02:15:54;101400.00;;;9.83;56.62
71764;BME280;59602;52.142;5.408;2023-04-28T02:18:20;101393.78;;;9.82;56.99
71764;BME280;59602;52.142;5.408;2023-04-28T02:20:47;101389.56;;;9.85;56.79
71764;BME280;59602;52.142;5.408;2023-04-28T02:23:14;101382.56;;;9.84;56.48
71764;BME280;59602;52.142;5.408;2023-04-28T02:25:42;101383.28;;;9.81;56.36
71764;BME280;59602;52.142;5.408;2023-04-28T02:28:08;101377.84;;;9.81;56.69
71764;BME280;59602;52.142;5.408;2023-04-28T02:30:35;101363.84;;;9.79;56.19
71764;BME280;59602;52.142;5.408;2023-04-28T02:33:02;101365.41;;;9.80;56.14
71764;BME280;59602;52.142;5.408;2023-04-28T02:35:28;101355.34;;;9.80;56.41
71764;BME280;59602;52.142;5.408;2023-04-28T02:37:55;101361.91;;;9.79;56.04
71764;BME280;59602;52.142;5.408;2023-04-28T02:40:22;101362.28;;;9.77;56.84
71764;BME280;59602;52.142;5.408;2023-04-28T02:42:48;101357.25;;;9.80;56.97
71764;BME280;59602;52.142;5.408;2023-04-28T02:45:15;101355.34;;;9.80;56.68
71764;BME280;59602;52.142;5.408;2023-04-28T02:47:42;101351.06;;;9.79;57.03
71764;BME280;59602;52.142;5.408;2023-04-28T02:50:08;101345.63;;;9.79;56.83
71764;BME280;59602;52.142;5.408;2023-04-28T02:52:35;101342.47;;;9.77;57.14
71764;BME280;59602;52.142;5.408;2023-04-28T02:55:03;101341.69;;;9.76;57.15
71764;BME280;59602;52.142;5.408;2023-04-28T02:57:30;101330.50;;;9.78;57.42
71764;BME280;59602;52.142;5.408;2023-04-28T02:59:57;101323.47;;;9.77;57.05
71764;BME280;59602;52.142;5.408;2023-04-28T03:02:24;101319.19;;;9.76;57.00
71764;BME280;59602;52.142;5.408;2023-04-28T03:04:50;101318.38;;;9.75;56.61
71764;BME280;59602;52.142;5.408;2023-04-28T03:07:17;101320.72;;;9.73;56.57
71764;BME280;59602;52.142;5.408;2023-04-28T03:09:44;101315.28;;;9.73;56.85
71764;BME280;59602;52.142;5.408;2023-04-28T03:12:11;101312.56;;;9.73;57.24
71764;BME280;59602;52.142;5.408;2023-04-28T03:14:40;101301.69;;;9.73;56.67
71764;BME280;59602;52.142;5.408;2023-04-28T03:17:07;101302.84;;;9.72;57.16
71764;BME280;59602;52.142;5.408;2023-04-28T03:19:34;101300.47;;;9.71;57.01
71764;BME280;59602;52.142;5.408;2023-04-28T03:22:00;101298.13;;;9.69;57.39
71764;BME280;59602;52.142;5.408;2023-04-28T03:24:27;101296.97;;;9.70;57.43
71764;BME280;59602;52.142;5.408;2023-04-28T03:26:54;101295.41;;;9.69;57.88
71764;BME280;59602;52.142;5.408;2023-04-28T03:29:20;101300.84;;;9.69;57.62
71764;BME280;59602;52.142;5.408;2023-04-28T03:31:49;101294.25;;;9.70;57.30
71764;BME280;59602;52.142;5.408;2023-04-28T03:34:16;101284.19;;;9.71;57.82
71764;BME280;59602;52.142;5.408;2023-04-28T03:36:43;101277.19;;;9.70;57.07
71764;BME280;59602;52.142;5.408;2023-04-28T03:39:10;101266.34;;;9.70;57.46
71764;BME280;59602;52.142;5.408;2023-04-28T03:41:36;101268.28;;;9.69;57.69
71764;BME280;59602;52.142;5.408;2023-04-28T03:44:05;101264.34;;;9.67;57.84
71764;BME280;59602;52.142;5.408;2023-04-28T03:46:33;101262.78;;;9.66;57.90
71764;BME280;59602;52.142;5.408;2023-04-28T03:49:09;101266.66;;;9.65;57.74
71764;BME280;59602;52.142;5.408;2023-04-28T03:51:35;101272.06;;;9.65;57.89
71764;BME280;59602;52.142;5.408;2023-04-28T03:54:02;101272.06;;;9.65;57.98
71764;BME280;59602;52.142;5.408;2023-04-28T03:56:29;101264.28;;;9.63;58.55
71764;BME280;59602;52.142;5.408;2023-04-28T03:58:55;101264.63;;;9.62;58.34
71764;BME280;59602;52.142;5.408;2023-04-28T04:01:22;101264.72;;;9.65;58.10
71764;BME280;59602;52.142;5.408;2023-04-28T04:03:51;101260.41;;;9.64;58.19
71764;BME280;59602;52.142;5.408;2023-04-28T04:06:18;101256.56;;;9.65;58.53
71764;BME280;59602;52.142;5.408;2023-04-28T04:08:45;101254.97;;;9.64;59.20
71764;BME280;59602;52.142;5.408;2023-04-28T04:11:11;101242.91;;;9.62;58.14
71764;BME280;59602;52.142;5.408;2023-04-28T04:13:41;101242.13;;;9.61;58.46
71764;BME280;59602;52.142;5.408;2023-04-28T04:16:10;101245.63;;;9.62;58.65
71764;BME280;59602;52.142;5.408;2023-04-28T04:18:37;101239.84;;;9.63;58.35
71764;BME280;59602;52.142;5.408;2023-04-28T04:21:04;101232.47;;;9.64;58.39
71764;BME280;59602;52.142;5.408;2023-04-28T04:23:30;101224.69;;;9.62;58.82
71764;BME280;59602;52.142;5.408;2023-04-28T04:26:02;101235.53;;;9.62;59.07
71764;BME280;59602;52.142;5.408;2023-04-28T04:28:29;101235.94;;;9.61;59.38
71764;BME280;59602;52.142;5.408;2023-04-28T04:30:56;101233.22;;;9.61;58.71
71764;BME280;59602;52.142;5.408;2023-04-28T04:33:24;101225.06;;;9.61;58.74
71764;BME280;59602;52.142;5.408;2023-04-28T04:35:50;101227.00;;;9.60;59.01
71764;BME280;59602;52.142;5.408;2023-04-28T04:38:20;101216.19;;;9.64;59.10
71764;BME280;59602;52.142;5.408;2023-04-28T04:40:46;101216.53;;;9.62;59.40
71764;BME280;59602;52.142;5.408;2023-04-28T04:43:13;101215.41;;;9.63;59.67
71764;BME280;59602;52.142;5.408;2023-04-28T04:45:39;101210.75;;;9.64;59.66
71764;BME280;59602;52.142;5.408;2023-04-28T04:48:06;101208.47;;;9.66;59.79
71764;BME280;59602;52.142;5.408;2023-04-28T04:50:33;101205.75;;;9.66;59.88
71764;BME280;59602;52.142;5.408;2023-04-28T04:52:59;101201.09;;;9.66;60.09
71764;BME280;59602;52.142;5.408;2023-04-28T04:55:26;101206.19;;;9.68;60.46
71764;BME280;59602;52.142;5.408;2023-04-28T04:57:53;101198.81;;;9.68;60.26
71764;BME280;59602;52.142;5.408;2023-04-28T05:00:20;101197.69;;;9.69;60.81
71764;BME280;59602;52.142;5.408;2023-04-28T05:02:46;101201.59;;;9.72;60.78
71764;BME280;59602;52.142;5.408;2023-04-28T05:05:13;101198.88;;;9.72;60.73
71764;BME280;59602;52.142;5.408;2023-04-28T05:07:47;101201.59;;;9.72;60.49
71764;BME280;59602;52.142;5.408;2023-04-28T05:10:14;101191.50;;;9.72;60.50
71764;BME280;59602;52.142;5.408;2023-04-28T05:12:41;101195.81;;;9.73;60.92
71764;BME280;59602;52.142;5.408;2023-04-28T05:15:13;101200.06;;;9.74;61.00
71764;BME280;59602;52.142;5.408;2023-04-28T05:17:40;101198.56;;;9.77;61.08
71764;BME280;59602;52.142;5.408;2023-04-28T05:20:07;101195.50;;;9.79;60.91
71764;BME280;59602;52.142;5.408;2023-04-28T05:22:35;101194.31;;;9.80;61.35
71764;BME280;59602;52.142;5.408;2023-04-28T05:25:01;101194.31;;;9.80;61.32
71764;BME280;59602;52.142;5.408;2023-04-28T05:27:30;101200.94;;;9.82;61.50
71764;BME280;59602;52.142;5.408;2023-04-28T05:29:57;101199.03;;;9.83;61.64
71764;BME280;59602;52.142;5.408;2023-04-28T05:32:25;101205.25;;;9.83;61.53
71764;BME280;59602;52.142;5.408;2023-04-28T05:34:52;101211.47;;;9.84;61.76
71764;BME280;59602;52.142;5.408;2023-04-28T05:37:19;101210.31;;;9.85;62.53
71764;BME280;59602;52.142;5.408;2023-04-28T05:39:46;101213.03;;;9.85;63.05
71764;BME280;59602;52.142;5.408;2023-04-28T05:42:12;101207.63;;;9.85;65.20
71764;BME280;59602;52.142;5.408;2023-04-28T05:44:39;101209.53;;;9.84;66.35
71764;BME280;59602;52.142;5.408;2023-04-28T05:47:08;101208.72;;;9.80;66.94
71764;BME280;59602;52.142;5.408;2023-04-28T05:49:36;101200.84;;;9.75;69.71
71764;BME280;59602;52.142;5.408;2023-04-28T05:52:03;101197.72;;;9.73;70.85
71764;BME280;59602;52.142;5.408;2023-04-28T05:54:29;101199.59;;;9.69;71.34
71764;BME280;59602;52.142;5.408;2023-04-28T05:56:56;101197.59;;;9.66;72.26
71764;BME280;59602;52.142;5.408;2023-04-28T05:59:26;101197.97;;;9.64;73.03
71764;BME280;59602;52.142;5.408;2023-04-28T06:01:53;101204.13;;;9.61;74.27
71764;BME280;59602;52.142;5.408;2023-04-28T06:04:20;101209.22;;;9.63;74.55
71764;BME280;59602;52.142;5.408;2023-04-28T06:06:47;101209.91;;;9.60;76.16
71764;BME280;59602;52.142;5.408;2023-04-28T06:09:14;101213.38;;;9.56;76.26
71764;BME280;59602;52.142;5.408;2023-04-28T06:11:41;101201.31;;;9.54;76.88
71764;BME280;59602;52.142;5.408;2023-04-28T06:14:08;101193.16;;;9.54;77.23
71764;BME280;59602;52.142;5.408;2023-04-28T06:16:34;101185.38;;;9.52;77.00
71764;BME280;59602;52.142;5.408;2023-04-28T06:19:01;101179.59;;;9.54;77.03
71764;BME280;59602;52.142;5.408;2023-04-28T06:21:28;101171.50;;;9.57;77.06
71764;BME280;59602;52.142;5.408;2023-04-28T06:23:54;101173.84;;;9.59;77.28
71764;BME280;59602;52.142;5.408;2023-04-28T06:26:21;101163.06;;;9.63;77.76
71764;BME280;59602;52.142;5.408;2023-04-28T06:28:55;101167.38;;;9.67;77.90
71764;BME280;59602;52.142;5.408;2023-04-28T06:31:30;101172.16;;;9.74;77.23
71764;BME280;59602;52.142;5.408;2023-04-28T06:33:56;101162.16;;;9.82;77.14
71764;BME280;59602;52.142;5.408;2023-04-28T06:36:24;101164.25;;;9.92;77.38
71764;BME280;59602;52.142;5.408;2023-04-28T06:38:51;101169.41;;;10.01;77.09
71764;BME280;59602;52.142;5.408;2023-04-28T06:41:18;101169.88;;;10.06;76.14
71764;BME280;59602;52.142;5.408;2023-04-28T06:43:44;101165.28;;;10.10;76.03
71764;BME280;59602;52.142;5.408;2023-04-28T06:46:11;101171.53;;;10.14;75.65
71764;BME280;59602;52.142;5.408;2023-04-28T06:48:38;101167.38;;;10.21;77.12
71764;BME280;59602;52.142;5.408;2023-04-28T06:51:04;101162.06;;;10.31;76.96
71764;BME280;59602;52.142;5.408;2023-04-28T06:53:31;101165.31;;;10.41;77.53
71764;BME280;59602;52.142;5.408;2023-04-28T06:55:58;101168.47;;;10.46;78.29
71764;BME280;59602;52.142;5.408;2023-04-28T06:58:24;101156.13;;;10.52;79.64
71764;BME280;59602;52.142;5.408;2023-04-28T07:00:55;101153.06;;;10.57;78.88
71764;BME280;59602;52.142;5.408;2023-04-28T07:03:23;101155.44;;;10.63;78.78
71764;BME280;59602;52.142;5.408;2023-04-28T07:05:50;101143.84;;;10.66;78.58
71764;BME280;59602;52.142;5.408;2023-04-28T07:08:16;101134.56;;;10.70;78.94
71764;BME280;59602;52.142;5.408;2023-04-28T07:10:43;101154.09;;;10.79;79.21
71764;BME280;59602;52.142;5.408;2023-04-28T07:13:10;101154.50;;;10.82;79.28
71764;BME280;59602;52.142;5.408;2023-04-28T07:15:37;101154.50;;;10.82;78.79
71764;BME280;59602;52.142;5.408;2023-04-28T07:18:04;101151.78;;;10.82;79.81
71764;BME280;59602;52.142;5.408;2023-04-28T07:20:30;101158.03;;;10.86;80.01
71764;BME280;59602;52.142;5.408;2023-04-28T07:22:57;101162.00;;;10.92;79.79
71764;BME280;59602;52.142;5.408;2023-04-28T07:25:24;101161.66;;;10.97;79.43
71764;BME280;59602;52.142;5.408;2023-04-28T07:27:50;101158.97;;;11.04;79.85
71764;BME280;59602;52.142;5.408;2023-04-28T07:30:17;101146.97;;;11.09;80.04
71764;BME280;59602;52.142;5.408;2023-04-28T07:32:52;101150.50;;;11.13;80.50
71764;BME280;59602;52.142;5.408;2023-04-28T07:35:19;101147.84;;;11.20;80.68
71764;BME280;59602;52.142;5.408;2023-04-28T07:37:46;101154.16;;;11.28;81.59
71764;BME280;59602;52.142;5.408;2023-04-28T07:40:12;101150.31;;;11.32;80.76
71764;BME280;59602;52.142;5.408;2023-04-28T07:42:39;101146.03;;;11.35;81.19
71764;BME280;59602;52.142;5.408;2023-04-28T07:45:06;101143.72;;;11.40;81.53
71764;BME280;59602;52.142;5.408;2023-04-28T07:47:33;101149.25;;;11.48;81.89
71764;BME280;59602;52.142;5.408;2023-04-28T07:50:00;101141.50;;;11.53;82.08
71764;BME280;59602;52.142;5.408;2023-04-28T07:52:32;101136.50;;;11.62;81.79
71764;BME280;59602;52.142;5.408;2023-04-28T07:54:59;101135.81;;;11.73;81.84
71764;BME280;59602;52.142;5.408;2023-04-28T07:57:25;101133.16;;;11.83;81.69
71764;BME280;59602;52.142;5.408;2023-04-28T07:59:52;101134.75;;;11.92;81.99
71764;BME280;59602;52.142;5.408;2023-04-28T08:02:19;101137.13;;;11.93;82.08
71764;BME280;59602;52.142;5.408;2023-04-28T08:04:46;101135.97;;;11.98;81.76
71764;BME280;59602;52.142;5.408;2023-04-28T08:07:13;101126.66;;;12.02;81.38
71764;BME280;59602;52.142;5.408;2023-04-28T08:09:40;101134.44;;;12.04;81.35
71764;BME280;59602;52.142;5.408;2023-04-28T08:12:09;101123.91;;;12.02;81.46
71764;BME280;59602;52.142;5.408;2023-04-28T08:14:36;101127.03;;;12.04;81.76
71764;BME280;59602;52.142;5.408;2023-04-28T08:17:02;101123.16;;;12.05;81.75
71764;BME280;59602;52.142;5.408;2023-04-28T08:19:29;101136.00;;;12.05;82.10
71764;BME280;59602;52.142;5.408;2023-04-28T08:21:56;101133.28;;;12.01;82.50
71764;BME280;59602;52.142;5.408;2023-04-28T08:24:22;101135.19;;;11.97;82.00
71764;BME280;59602;52.142;5.408;2023-04-28T08:26:49;101136.34;;;11.96;82.67
71764;BME280;59602;52.142;5.408;2023-04-28T08:29:16;101134.78;;;11.95;82.33
71764;BME280;59602;52.142;5.408;2023-04-28T08:31:43;101146.06;;;11.94;82.70
71764;BME280;59602;52.142;5.408;2023-04-28T08:34:12;101139.03;;;11.89;82.60
71764;BME280;59602;52.142;5.408;2023-04-28T08:36:45;101132.81;;;11.89;83.21
71764;BME280;59602;52.142;5.408;2023-04-28T08:39:11;101134.31;;;11.86;83.60
71764;BME280;59602;52.142;5.408;2023-04-28T08:41:39;101124.63;;;11.89;84.90
71764;BME280;59602;52.142;5.408;2023-04-28T08:44:09;101137.50;;;11.95;84.44
71764;BME280;59602;52.142;5.408;2023-04-28T08:46:40;101128.59;;;12.02;84.48
71764;BME280;59602;52.142;5.408;2023-04-28T08:49:14;101134.44;;;12.08;84.69
71764;BME280;59602;52.142;5.408;2023-04-28T08:51:45;101135.28;;;12.15;85.28
71764;BME280;59602;52.142;5.408;2023-04-28T08:54:14;101138.03;;;12.22;85.46
71764;BME280;59602;52.142;5.408;2023-04-28T08:56:53;101134.94;;;12.28;85.32
71764;BME280;59602;52.142;5.408;2023-04-28T08:59:20;101135.31;;;12.30;85.29
71764;BME280;59602;52.142;5.408;2023-04-28T09:01:48;101125.59;;;12.32;85.81
71764;BME280;59602;52.142;5.408;2023-04-28T09:04:16;101127.16;;;12.30;86.24
71764;BME280;59602;52.142;5.408;2023-04-28T09:06:45;101127.16;;;12.30;86.10
71764;BME280;59602;52.142;5.408;2023-04-28T09:09:29;101130.28;;;12.28;86.46
71764;BME280;59602;52.142;5.408;2023-04-28T09:12:02;101122.50;;;12.30;86.54
71764;BME280;59602;52.142;5.408;2023-04-28T09:14:31;101111.97;;;12.29;86.59
71764;BME280;59602;52.142;5.408;2023-04-28T09:17:01;101108.06;;;12.30;87.41
71764;BME280;59602;52.142;5.408;2023-04-28T09:19:33;101111.19;;;12.32;87.65
71764;BME280;59602;52.142;5.408;2023-04-28T09:22:01;101108.47;;;12.32;87.46
71764;BME280;59602;52.142;5.408;2023-04-28T09:24:43;101106.91;;;12.34;87.36
71764;BME280;59602;52.142;5.408;2023-04-28T09:27:10;101109.63;;;12.34;88.02
71764;BME280;59602;52.142;5.408;2023-04-28T09:29:38;101112.75;;;12.33;87.95
71764;BME280;59602;52.142;5.408;2023-04-28T09:32:12;101116.63;;;12.32;88.08
71764;BME280;59602;52.142;5.408;2023-04-28T09:34:43;101119.78;;;12.30;88.20
71764;BME280;59602;52.142;5.408;2023-04-28T09:37:30;101113.50;;;12.30;88.16
71764;BME280;59602;52.142;5.408;2023-04-28T09:40:06;101115.47;;;12.29;88.98
71764;BME280;59602;52.142;5.408;2023-04-28T09:42:36;101110.81;;;12.33;89.39
71764;BME280;59602;52.142;5.408;2023-04-28T09:45:05;101109.28;;;12.43;89.35
71764;BME280;59602;52.142;5.408;2023-04-28T09:47:34;101106.19;;;12.48;89.78
71764;BME280;59602;52.142;5.408;2023-04-28T09:50:03;101110.09;;;12.51;89.75
71764;BME280;59602;52.142;5.408;2023-04-28T09:52:35;101111.66;;;12.55;89.86
71764;BME280;59602;52.142;5.408;2023-04-28T09:55:04;101101.94;;;12.61;90.55
71764;BME280;59602;52.142;5.408;2023-04-28T09:57:33;101099.56;;;12.63;90.26
71764;BME280;59602;52.142;5.408;2023-04-28T10:00:01;101093.75;;;12.65;90.67
71764;BME280;59602;52.142;5.408;2023-04-28T10:02:28;101097.25;;;12.69;91.16
71764;BME280;59602;52.142;5.408;2023-04-28T10:04:58;101096.88;;;12.71;91.38
71764;BME280;59602;52.142;5.408;2023-04-28T10:07:25;101099.63;;;12.71;91.71
71764;BME280;59602;52.142;5.408;2023-04-28T10:09:54;101092.19;;;12.71;92.15
71764;BME280;59602;52.142;5.408;2023-04-28T10:12:23;101096.09;;;12.74;92.15
71764;BME280;59602;52.142;5.408;2023-04-28T10:14:50;101098.84;;;12.77;92.57
71764;BME280;59602;52.142;5.408;2023-04-28T10:17:21;101091.81;;;12.76;92.67
71764;BME280;59602;52.142;5.408;2023-04-28T10:19:49;101091.81;;;12.80;92.66
71764;BME280;59602;52.142;5.408;2023-04-28T10:22:27;101095.31;;;12.80;92.78
71764;BME280;59602;52.142;5.408;2023-04-28T10:27:30;101102.34;;;12.81;93.05
71764;BME280;59602;52.142;5.408;2023-04-28T10:30:18;101095.72;;;12.82;93.40
71764;BME280;59602;52.142;5.408;2023-04-28T10:40:34;101101.59;;;12.95;94.05
71764;BME280;59602;52.142;5.408;2023-04-28T10:43:02;101106.25;;;12.95;93.85
71764;BME280;59602;52.142;5.408;2023-04-28T10:56:08;101096.09;;;13.06;94.87
71764;BME280;59602;52.142;5.408;2023-04-28T10:58:37;101106.25;;;13.13;94.76
71764;BME280;59602;52.142;5.408;2023-04-28T11:06:30;101107.44;;;13.22;95.15
71764;BME280;59602;52.142;5.408;2023-04-28T11:09:01;101099.66;;;13.32;95.00
71764;BME280;59602;52.142;5.408;2023-04-28T11:11:30;101096.94;;;13.35;94.89
71764;BME280;59602;52.142;5.408;2023-04-28T11:16:48;101091.84;;;13.41;94.94
71764;BME280;59602;52.142;5.408;2023-04-28T11:19:21;101095.72;;;13.43;95.26
71764;BME280;59602;52.142;5.408;2023-04-28T11:21:52;101096.13;;;13.45;95.54
71764;BME280;59602;52.142;5.408;2023-04-28T11:24:22;101090.66;;;13.49;96.00
71764;BME280;59602;52.142;5.408;2023-04-28T11:26:51;101088.69;;;13.49;96.05
71764;BME280;59602;52.142;5.408;2023-04-28T11:29:34;101095.72;;;13.50;95.54
71764;BME280;59602;52.142;5.408;2023-04-28T11:32:02;101089.09;;;13.55;96.00
71764;BME280;59602;52.142;5.408;2023-04-28T11:34:29;101076.59;;;13.54;95.30
71764;BME280;59602;52.142;5.408;2023-04-28T11:36:57;101079.72;;;13.56;95.36
71764;BME280;59602;52.142;5.408;2023-04-28T11:39:26;101082.03;;;13.61;95.53
71764;BME280;59602;52.142;5.408;2023-04-28T11:41:56;101089.84;;;13.66;95.26
71764;BME280;59602;52.142;5.408;2023-04-28T11:44:24;101078.91;;;13.70;95.43
71764;BME280;59602;52.142;5.408;2023-04-28T11:46:54;101090.97;;;13.73;95.72
71764;BME280;59602;52.142;5.408;2023-04-28T11:49:23;101089.06;;;13.73;95.78
71764;BME280;59602;52.142;5.408;2023-04-28T11:51:51;101091.00;;;13.69;95.49
71764;BME280;59602;52.142;5.408;2023-04-28T11:54:24;101092.16;;;13.68;95.51
71764;BME280;59602;52.142;5.408;2023-04-28T11:56:52;101097.28;;;13.62;95.47
71764;BME280;59602;52.142;5.408;2023-04-28T11:59:24;101095.69;;;13.65;95.48
71764;BME280;59602;52.142;5.408;2023-04-28T12:01:54;101091.00;;;13.65;95.52
71764;BME280;59602;52.142;5.408;2023-04-28T12:04:32;101098.81;;;13.67;95.23
71764;BME280;59602;52.142;5.408;2023-04-28T12:07:07;101098.78;;;13.74;95.30
71764;BME280;59602;52.142;5.408;2023-04-28T12:09:37;101103.06;;;13.82;95.26
71764;BME280;59602;52.142;5.408;2023-04-28T12:12:06;101105.00;;;13.89;95.23
71764;BME280;59602;52.142;5.408;2023-04-28T12:14:53;101103.81;;;13.90;94.58
71764;BME280;59602;52.142;5.408;2023-04-28T12:17:23;101099.13;;;13.90;94.82
71764;BME280;59602;52.142;5.408;2023-04-28T12:19:51;101102.28;;;13.89;94.84
71764;BME280;59602;52.142;5.408;2023-04-28T12:22:18;101101.47;;;13.88;94.86
71764;BME280;59602;52.142;5.408;2023-04-28T12:24:44;101098.75;;;13.92;94.94
71764;BME280;59602;52.142;5.408;2023-04-28T12:27:14;101095.59;;;13.97;94.84
71764;BME280;59602;52.142;5.408;2023-04-28T12:29:42;101104.59;;;13.94;94.19
71764;BME280;59602;52.142;5.408;2023-04-28T12:32:12;101104.97;;;13.93;94.07
71764;BME280;59602;52.142;5.408;2023-04-28T12:34:40;101108.50;;;13.93;94.72
71764;BME280;59602;52.142;5.408;2023-04-28T12:37:07;101106.94;;;13.92;94.18
71764;BME280;59602;52.142;5.408;2023-04-28T12:39:35;101106.19;;;13.84;94.51
71764;BME280;59602;52.142;5.408;2023-04-28T12:42:05;101113.25;;;13.78;94.82
71764;BME280;59602;52.142;5.408;2023-04-28T12:44:33;101114.41;;;13.74;95.14
71764;BME280;59602;52.142;5.408;2023-04-28T12:47:07;101110.53;;;13.71;95.68
71764;BME280;59602;52.142;5.408;2023-04-28T12:49:36;101108.97;;;13.74;95.33
71764;BME280;59602;52.142;5.408;2023-04-28T12:52:05;101108.16;;;13.80;95.22
71764;BME280;59602;52.142;5.408;2023-04-28T12:54:32;101104.22;;;13.92;95.38
71764;BME280;59602;52.142;5.408;2023-04-28T12:56:58;101104.59;;;13.98;95.30
71764;BME280;59602;52.142;5.408;2023-04-28T12:59:25;101106.13;;;13.99;95.54
71764;BME280;59602;52.142;5.408;2023-04-28T13:01:52;101109.66;;;14.03;95.07
71764;BME280;59602;52.142;5.408;2023-04-28T13:04:18;101111.19;;;14.11;94.67
71764;BME280;59602;52.142;5.408;2023-04-28T13:06:46;101111.94;;;14.15;94.81
71764;BME280;59602;52.142;5.408;2023-04-28T13:09:13;101103.31;;;14.20;93.57
71764;BME280;59602;52.142;5.408;2023-04-28T13:11:41;101116.63;;;14.18;93.23
71764;BME280;59602;52.142;5.408;2023-04-28T13:14:07;101117.78;;;14.17;93.38
71764;BME280;59602;52.142;5.408;2023-04-28T13:16:34;101109.59;;;14.14;93.21
71764;BME280;59602;52.142;5.408;2023-04-28T13:19:02;101104.16;;;14.06;92.98
71764;BME280;59602;52.142;5.408;2023-04-28T13:21:29;101110.38;;;14.10;93.47
71764;BME280;59602;52.142;5.408;2023-04-28T13:23:57;101112.34;;;14.14;93.79
71764;BME280;59602;52.142;5.408;2023-04-28T13:26:25;101112.34;;;14.14;93.63
71764;BME280;59602;52.142;5.408;2023-04-28T13:28:52;101112.72;;;14.16;93.41